AFL10 UUEE-ULLI
Flight info
| Callsign | AFL10 |
|---|---|
| Flight time | 1h 11m |
| Altitude | 34000 |
| Route | TOKNU3H TOKNU L4 NUDKO T561 ODATI T875 GENPA GENPA1V |
| Aircraft | A321/M-SDE3FGHIRWY/LB1 |
Departure
| Time | 2026-05-05 10:50 |
|---|---|
| Airport | Sheremetyevo International Airport (UUEE) |
Arrival
| Time | 2026-05-05 12:01 |
|---|---|
| Airport | Pulkovo Airport (ULLI) |
| Time | Latitude | Longitude | Altitude | Speed | Heading |
|---|---|---|---|---|---|
| 2026-05-05 10:08 | 55.97994 | 37.41566 | 639 ft | 0 kts | 76° |
| 2026-05-05 10:39 | 55.97993 | 37.41561 | 645 ft | 3 kts | 76° |
| 2026-05-05 10:40 | 55.97987 | 37.41516 | 641 ft | 4 kts | 77° |
| 2026-05-05 10:40 | 55.97981 | 37.41469 | 640 ft | 4 kts | 82° |
| 2026-05-05 10:40 | 55.97979 | 37.41421 | 641 ft | 4 kts | 101° |
| 2026-05-05 10:40 | 55.97988 | 37.41390 | 641 ft | 2 kts | 163° |
| 2026-05-05 10:41 | 55.97990 | 37.41389 | 641 ft | 0 kts | 165° |
| 2026-05-05 10:45 | 55.97986 | 37.41390 | 641 ft | 2 kts | 165° |
| 2026-05-05 10:45 | 55.97964 | 37.41401 | 643 ft | 7 kts | 165° |
| 2026-05-05 10:46 | 55.97916 | 37.41424 | 641 ft | 10 kts | 165° |
| 2026-05-05 10:46 | 55.97794 | 37.41481 | 639 ft | 23 kts | 165° |
| 2026-05-05 10:46 | 55.97661 | 37.41580 | 639 ft | 19 kts | 150° |
| 2026-05-05 10:46 | 55.97618 | 37.41734 | 644 ft | 19 kts | 86° |
| 2026-05-05 10:47 | 55.97661 | 37.42025 | 643 ft | 30 kts | 77° |
| 2026-05-05 10:47 | 55.97719 | 37.42416 | 639 ft | 33 kts | 75° |
| 2026-05-05 10:47 | 55.97757 | 37.42671 | 640 ft | 11 kts | 75° |
| 2026-05-05 10:47 | 55.97756 | 37.42782 | 643 ft | 8 kts | 131° |
| 2026-05-05 10:48 | 55.97703 | 37.42809 | 639 ft | 10 kts | 166° |
| 2026-05-05 10:48 | 55.97588 | 37.42864 | 642 ft | 23 kts | 165° |
| 2026-05-05 10:48 | 55.97441 | 37.42933 | 640 ft | 17 kts | 165° |
| 2026-05-05 10:48 | 55.97363 | 37.42933 | 641 ft | 11 kts | 222° |
| 2026-05-05 10:49 | 55.97338 | 37.42801 | 641 ft | 16 kts | 256° |
| 2026-05-05 10:49 | 55.97258 | 37.42264 | 644 ft | 78 kts | 255° |
| 2026-05-05 10:49 | 55.97065 | 37.40981 | 641 ft | 132 kts | 255° |
| 2026-05-05 10:49 | 55.96779 | 37.39164 | 782 ft | 160 kts | 254° |
| 2026-05-05 10:50 | 55.96512 | 37.37381 | 1662 ft | 140 kts | 255° |
| 2026-05-05 10:50 | 55.96258 | 37.35680 | 2133 ft | 150 kts | 254° |
| 2026-05-05 10:50 | 55.95961 | 37.33799 | 2419 ft | 162 kts | 253° |
| 2026-05-05 10:50 | 55.95650 | 37.31781 | 2552 ft | 182 kts | 254° |
| 2026-05-05 10:51 | 55.95311 | 37.29476 | 2713 ft | 203 kts | 253° |
| 2026-05-05 10:51 | 55.94930 | 37.26893 | 2924 ft | 227 kts | 254° |
| 2026-05-05 10:51 | 55.94508 | 37.24048 | 3369 ft | 243 kts | 254° |
| 2026-05-05 10:51 | 55.94077 | 37.21146 | 4221 ft | 243 kts | 256° |
| 2026-05-05 10:52 | 55.93633 | 37.18186 | 4995 ft | 246 kts | 255° |
| 2026-05-05 10:52 | 55.93185 | 37.15226 | 5747 ft | 247 kts | 256° |
| 2026-05-05 10:52 | 55.92737 | 37.12266 | 6535 ft | 247 kts | 256° |
| 2026-05-05 10:52 | 55.92289 | 37.09294 | 7274 ft | 249 kts | 256° |
| 2026-05-05 10:53 | 55.91838 | 37.06308 | 8013 ft | 250 kts | 257° |
| 2026-05-05 10:53 | 55.91694 | 37.03217 | 8686 ft | 253 kts | 276° |
| 2026-05-05 10:53 | 55.92204 | 37.00236 | 9361 ft | 259 kts | 295° |
| 2026-05-05 10:53 | 55.93353 | 36.97696 | 9866 ft | 272 kts | 315° |
| 2026-05-05 10:54 | 55.94905 | 36.95725 | 9977 ft | 275 kts | 320° |
| 2026-05-05 10:54 | 55.96492 | 36.93788 | 10342 ft | 277 kts | 320° |
| 2026-05-05 10:54 | 55.98085 | 36.91836 | 11023 ft | 279 kts | 320° |
| 2026-05-05 10:54 | 55.99776 | 36.90058 | 11630 ft | 288 kts | 330° |
| 2026-05-05 10:55 | 56.01737 | 36.88782 | 11855 ft | 309 kts | 336° |
| 2026-05-05 10:55 | 56.03799 | 36.87559 | 12352 ft | 316 kts | 336° |
| 2026-05-05 10:55 | 56.05902 | 36.86320 | 12977 ft | 320 kts | 336° |
| 2026-05-05 10:55 | 56.07969 | 36.84866 | 13603 ft | 319 kts | 327° |
| 2026-05-05 10:56 | 56.09819 | 36.82710 | 14152 ft | 316 kts | 315° |
| 2026-05-05 10:56 | 56.11441 | 36.80054 | 14700 ft | 317 kts | 312° |
| 2026-05-05 10:56 | 56.13060 | 36.77334 | 15277 ft | 320 kts | 312° |
| 2026-05-05 10:56 | 56.14691 | 36.74600 | 15828 ft | 322 kts | 312° |
| 2026-05-05 10:57 | 56.16337 | 36.71841 | 16385 ft | 325 kts | 312° |
| 2026-05-05 10:57 | 56.17997 | 36.69054 | 16926 ft | 329 kts | 312° |
| 2026-05-05 10:57 | 56.19675 | 36.66236 | 17491 ft | 331 kts | 312° |
| 2026-05-05 10:57 | 56.21364 | 36.63398 | 18045 ft | 334 kts | 312° |
| 2026-05-05 10:58 | 56.23076 | 36.60518 | 18393 ft | 343 kts | 311° |
| 2026-05-05 10:58 | 56.24848 | 36.57522 | 18527 ft | 357 kts | 312° |
| 2026-05-05 10:58 | 56.26691 | 36.54404 | 18639 ft | 369 kts | 312° |
| 2026-05-05 10:58 | 56.28575 | 36.51215 | 18936 ft | 375 kts | 312° |
| 2026-05-05 10:59 | 56.30484 | 36.47980 | 19343 ft | 378 kts | 312° |
| 2026-05-05 10:59 | 56.32403 | 36.44725 | 19775 ft | 380 kts | 312° |
| 2026-05-05 10:59 | 56.34319 | 36.41409 | 20209 ft | 381 kts | 308° |
| 2026-05-05 10:59 | 56.35955 | 36.37689 | 20640 ft | 378 kts | 299° |
| 2026-05-05 11:00 | 56.37193 | 36.33537 | 21080 ft | 375 kts | 289° |
| 2026-05-05 11:00 | 56.38130 | 36.29146 | 21522 ft | 376 kts | 288° |
| 2026-05-05 11:00 | 56.39063 | 36.24725 | 21967 ft | 378 kts | 288° |
| 2026-05-05 11:00 | 56.40004 | 36.20288 | 22394 ft | 380 kts | 288° |
| 2026-05-05 11:01 | 56.40950 | 36.15825 | 22830 ft | 381 kts | 288° |
| 2026-05-05 11:01 | 56.41898 | 36.11339 | 23263 ft | 383 kts | 288° |
| 2026-05-05 11:01 | 56.42845 | 36.06839 | 23640 ft | 385 kts | 287° |
| 2026-05-05 11:01 | 56.43794 | 36.02308 | 23986 ft | 386 kts | 287° |
| 2026-05-05 11:02 | 56.44826 | 35.97812 | 24335 ft | 390 kts | 293° |
| 2026-05-05 11:02 | 56.46266 | 35.93618 | 24663 ft | 397 kts | 303° |
| 2026-05-05 11:02 | 56.48014 | 35.89800 | 24994 ft | 400 kts | 305° |
| 2026-05-05 11:02 | 56.49810 | 35.85937 | 25323 ft | 402 kts | 305° |
| 2026-05-05 11:03 | 56.51605 | 35.82051 | 25656 ft | 403 kts | 305° |
| 2026-05-05 11:03 | 56.53405 | 35.78128 | 26015 ft | 405 kts | 304° |
| 2026-05-05 11:03 | 56.55201 | 35.74196 | 26388 ft | 405 kts | 304° |
| 2026-05-05 11:03 | 56.56999 | 35.70252 | 26730 ft | 406 kts | 304° |
| 2026-05-05 11:04 | 56.58801 | 35.66296 | 27050 ft | 408 kts | 304° |
| 2026-05-05 11:04 | 56.60610 | 35.62320 | 27367 ft | 409 kts | 304° |
| 2026-05-05 11:04 | 56.62428 | 35.58325 | 27673 ft | 411 kts | 304° |
| 2026-05-05 11:04 | 56.64258 | 35.54309 | 27968 ft | 412 kts | 304° |
| 2026-05-05 11:05 | 56.66092 | 35.50289 | 28255 ft | 414 kts | 304° |
| 2026-05-05 11:05 | 56.67931 | 35.46250 | 28553 ft | 415 kts | 304° |
| 2026-05-05 11:05 | 56.69773 | 35.42191 | 28844 ft | 417 kts | 304° |
| 2026-05-05 11:05 | 56.71624 | 35.38112 | 29122 ft | 419 kts | 304° |
| 2026-05-05 11:06 | 56.73477 | 35.34017 | 29509 ft | 418 kts | 303° |
| 2026-05-05 11:06 | 56.75317 | 35.29936 | 29926 ft | 416 kts | 303° |
| 2026-05-05 11:06 | 56.77125 | 35.25917 | 30267 ft | 415 kts | 303° |
| 2026-05-05 11:06 | 56.78970 | 35.21794 | 30591 ft | 414 kts | 303° |
| 2026-05-05 11:07 | 56.80790 | 35.17728 | 30905 ft | 414 kts | 303° |
| 2026-05-05 11:07 | 56.82589 | 35.13717 | 31225 ft | 413 kts | 303° |
| 2026-05-05 11:07 | 56.84405 | 35.09668 | 31530 ft | 413 kts | 303° |
| 2026-05-05 11:07 | 56.86230 | 35.05590 | 31831 ft | 413 kts | 303° |
| 2026-05-05 11:08 | 56.88042 | 35.01523 | 32135 ft | 413 kts | 303° |
| 2026-05-05 11:08 | 56.89867 | 34.97467 | 32434 ft | 414 kts | 306° |
| 2026-05-05 11:08 | 56.91958 | 34.93784 | 32761 ft | 421 kts | 315° |
| 2026-05-05 11:08 | 56.94375 | 34.90670 | 33036 ft | 427 kts | 320° |
| 2026-05-05 11:09 | 56.96874 | 34.87713 | 33339 ft | 427 kts | 320° |
| 2026-05-05 11:09 | 56.99380 | 34.84732 | 33580 ft | 428 kts | 320° |
| 2026-05-05 11:09 | 57.01881 | 34.81748 | 33778 ft | 430 kts | 320° |
| 2026-05-05 11:10 | 57.06857 | 34.75785 | 33815 ft | 425 kts | 320° |
| 2026-05-05 11:10 | 57.11798 | 34.69839 | 33819 ft | 424 kts | 320° |
| 2026-05-05 11:11 | 57.16701 | 34.63900 | 33829 ft | 424 kts | 320° |
| 2026-05-05 11:11 | 57.21634 | 34.57907 | 33817 ft | 426 kts | 321° |
| 2026-05-05 11:12 | 57.26608 | 34.51866 | 33814 ft | 426 kts | 321° |
| 2026-05-05 11:12 | 57.31557 | 34.45831 | 33816 ft | 426 kts | 321° |
| 2026-05-05 11:13 | 57.36510 | 34.39775 | 33822 ft | 426 kts | 321° |
| 2026-05-05 11:13 | 57.41452 | 34.33702 | 33818 ft | 426 kts | 321° |
| 2026-05-05 11:14 | 57.46397 | 34.27609 | 33836 ft | 426 kts | 321° |
| 2026-05-05 11:14 | 57.51336 | 34.21493 | 33843 ft | 427 kts | 322° |
| 2026-05-05 11:15 | 57.56280 | 34.15364 | 33827 ft | 427 kts | 322° |
| 2026-05-05 11:15 | 57.61229 | 34.09216 | 33821 ft | 427 kts | 322° |
| 2026-05-05 11:16 | 57.66172 | 34.03063 | 33812 ft | 427 kts | 321° |
| 2026-05-05 11:16 | 57.71112 | 33.96873 | 33832 ft | 427 kts | 322° |
| 2026-05-05 11:17 | 57.76016 | 33.90689 | 33818 ft | 428 kts | 322° |
| 2026-05-05 11:17 | 57.80951 | 33.84462 | 33814 ft | 428 kts | 322° |
| 2026-05-05 11:18 | 57.85893 | 33.78213 | 33811 ft | 428 kts | 322° |
| 2026-05-05 11:18 | 57.90699 | 33.71647 | 33810 ft | 426 kts | 317° |
| 2026-05-05 11:19 | 57.95270 | 33.64566 | 33809 ft | 425 kts | 316° |
| 2026-05-05 11:19 | 57.99804 | 33.57416 | 33810 ft | 425 kts | 317° |
| 2026-05-05 11:20 | 58.04395 | 33.50341 | 33807 ft | 426 kts | 317° |
| 2026-05-05 11:20 | 58.09009 | 33.43306 | 33821 ft | 426 kts | 317° |
| 2026-05-05 11:21 | 58.13610 | 33.36252 | 33816 ft | 426 kts | 317° |
| 2026-05-05 11:21 | 58.18198 | 33.29153 | 33812 ft | 426 kts | 317° |
| 2026-05-05 11:22 | 58.22785 | 33.22046 | 33827 ft | 426 kts | 317° |
| 2026-05-05 11:22 | 58.26605 | 33.16127 | 33821 ft | 426 kts | 317° |
| 2026-05-05 11:23 | 58.31933 | 33.07841 | 33807 ft | 426 kts | 317° |
| 2026-05-05 11:23 | 58.36510 | 33.00678 | 33794 ft | 426 kts | 316° |
| 2026-05-05 11:24 | 58.41087 | 32.93478 | 33783 ft | 427 kts | 316° |
| 2026-05-05 11:24 | 58.44934 | 32.87419 | 33505 ft | 429 kts | 316° |
| 2026-05-05 11:24 | 58.47263 | 32.83742 | 32263 ft | 441 kts | 316° |
| 2026-05-05 11:25 | 58.49644 | 32.79972 | 31338 ft | 445 kts | 316° |
| 2026-05-05 11:25 | 58.52027 | 32.76201 | 30634 ft | 444 kts | 315° |
| 2026-05-05 11:25 | 58.54398 | 32.72449 | 30035 ft | 441 kts | 315° |
| 2026-05-05 11:25 | 58.56721 | 32.68765 | 29437 ft | 437 kts | 315° |
| 2026-05-05 11:26 | 58.59053 | 32.65064 | 28822 ft | 433 kts | 315° |
| 2026-05-05 11:26 | 58.61359 | 32.61402 | 28208 ft | 429 kts | 315° |
| 2026-05-05 11:26 | 58.63646 | 32.57756 | 27595 ft | 425 kts | 315° |
| 2026-05-05 11:26 | 58.65907 | 32.54142 | 26997 ft | 421 kts | 315° |
| 2026-05-05 11:27 | 58.68149 | 32.50549 | 26435 ft | 418 kts | 315° |
| 2026-05-05 11:27 | 58.70371 | 32.46973 | 25862 ft | 414 kts | 315° |
| 2026-05-05 11:27 | 58.72575 | 32.43413 | 25290 ft | 411 kts | 314° |
| 2026-05-05 11:27 | 58.74753 | 32.39887 | 24733 ft | 408 kts | 314° |
| 2026-05-05 11:28 | 58.76919 | 32.36377 | 24179 ft | 405 kts | 314° |
| 2026-05-05 11:28 | 58.79073 | 32.32891 | 23644 ft | 402 kts | 315° |
| 2026-05-05 11:28 | 58.81214 | 32.29434 | 23078 ft | 399 kts | 315° |
| 2026-05-05 11:28 | 58.83306 | 32.26053 | 22470 ft | 396 kts | 314° |
| 2026-05-05 11:29 | 58.85402 | 32.22652 | 21946 ft | 390 kts | 314° |
| 2026-05-05 11:29 | 58.87472 | 32.19282 | 21342 ft | 387 kts | 314° |
| 2026-05-05 11:29 | 58.89513 | 32.15956 | 20884 ft | 381 kts | 314° |
| 2026-05-05 11:29 | 58.91528 | 32.12668 | 20423 ft | 375 kts | 314° |
| 2026-05-05 11:30 | 58.93511 | 32.09424 | 19959 ft | 370 kts | 314° |
| 2026-05-05 11:30 | 58.95463 | 32.06225 | 19490 ft | 366 kts | 313° |
| 2026-05-05 11:30 | 58.97397 | 32.03052 | 19017 ft | 362 kts | 313° |
| 2026-05-05 11:30 | 58.99306 | 31.99915 | 18552 ft | 358 kts | 313° |
| 2026-05-05 11:31 | 59.01198 | 31.96808 | 18093 ft | 355 kts | 313° |
| 2026-05-05 11:31 | 59.03078 | 31.93711 | 17573 ft | 352 kts | 313° |
| 2026-05-05 11:31 | 59.04927 | 31.90653 | 17119 ft | 347 kts | 313° |
| 2026-05-05 11:31 | 59.06752 | 31.87626 | 16677 ft | 343 kts | 313° |
| 2026-05-05 11:32 | 59.08556 | 31.84632 | 16244 ft | 339 kts | 313° |
| 2026-05-05 11:32 | 59.10344 | 31.81668 | 15812 ft | 335 kts | 313° |
| 2026-05-05 11:32 | 59.12076 | 31.78661 | 15295 ft | 333 kts | 310° |
| 2026-05-05 11:32 | 59.13751 | 31.75544 | 14746 ft | 333 kts | 309° |
| 2026-05-05 11:33 | 59.15399 | 31.72377 | 14226 ft | 333 kts | 309° |
| 2026-05-05 11:33 | 59.17019 | 31.69226 | 13681 ft | 333 kts | 308° |
| 2026-05-05 11:33 | 59.18664 | 31.66030 | 13114 ft | 334 kts | 308° |
| 2026-05-05 11:33 | 59.20315 | 31.62841 | 12558 ft | 333 kts | 309° |
| 2026-05-05 11:34 | 59.21963 | 31.59679 | 12069 ft | 331 kts | 309° |
| 2026-05-05 11:34 | 59.23601 | 31.56549 | 11511 ft | 330 kts | 310° |
| 2026-05-05 11:34 | 59.25238 | 31.53433 | 10991 ft | 328 kts | 310° |
| 2026-05-05 11:34 | 59.26862 | 31.50337 | 10558 ft | 325 kts | 310° |
| 2026-05-05 11:35 | 59.28478 | 31.47239 | 10113 ft | 321 kts | 310° |
| 2026-05-05 11:35 | 59.30043 | 31.44246 | 10009 ft | 309 kts | 310° |
| 2026-05-05 11:35 | 59.31549 | 31.41371 | 9882 ft | 296 kts | 309° |
| 2026-05-05 11:35 | 59.32995 | 31.38607 | 9757 ft | 285 kts | 309° |
| 2026-05-05 11:36 | 59.34384 | 31.35946 | 9628 ft | 274 kts | 309° |
| 2026-05-05 11:36 | 59.35728 | 31.33356 | 9311 ft | 269 kts | 309° |
| 2026-05-05 11:36 | 59.37058 | 31.30778 | 8914 ft | 268 kts | 309° |
| 2026-05-05 11:36 | 59.38380 | 31.28208 | 8503 ft | 267 kts | 309° |
| 2026-05-05 11:37 | 59.39699 | 31.25647 | 8098 ft | 267 kts | 309° |
| 2026-05-05 11:37 | 59.41021 | 31.23078 | 7705 ft | 266 kts | 309° |
| 2026-05-05 11:37 | 59.42340 | 31.20517 | 7314 ft | 265 kts | 309° |
| 2026-05-05 11:37 | 59.43653 | 31.17965 | 6913 ft | 265 kts | 309° |
| 2026-05-05 11:38 | 59.44954 | 31.15429 | 6541 ft | 263 kts | 309° |
| 2026-05-05 11:38 | 59.46250 | 31.12900 | 6196 ft | 261 kts | 309° |
| 2026-05-05 11:38 | 59.47536 | 31.10386 | 5835 ft | 259 kts | 309° |
| 2026-05-05 11:38 | 59.48811 | 31.07890 | 5481 ft | 258 kts | 310° |
| 2026-05-05 11:39 | 59.50082 | 31.05404 | 5153 ft | 257 kts | 310° |
| 2026-05-05 11:39 | 59.51353 | 31.02925 | 4822 ft | 257 kts | 310° |
| 2026-05-05 11:39 | 59.52566 | 31.00426 | 4625 ft | 253 kts | 307° |
| 2026-05-05 11:39 | 59.53731 | 30.97814 | 4524 ft | 255 kts | 306° |
| 2026-05-05 11:40 | 59.54880 | 30.95149 | 4407 ft | 254 kts | 305° |
| 2026-05-05 11:40 | 59.56020 | 30.92487 | 4302 ft | 254 kts | 305° |
| 2026-05-05 11:40 | 59.57162 | 30.89830 | 4192 ft | 254 kts | 305° |
| 2026-05-05 11:40 | 59.58306 | 30.87180 | 4040 ft | 253 kts | 305° |
| 2026-05-05 11:41 | 59.59448 | 30.84543 | 3918 ft | 252 kts | 305° |
| 2026-05-05 11:41 | 59.60588 | 30.81918 | 3790 ft | 252 kts | 306° |
| 2026-05-05 11:41 | 59.61731 | 30.79289 | 3657 ft | 252 kts | 306° |
| 2026-05-05 11:41 | 59.62870 | 30.76664 | 3553 ft | 251 kts | 305° |
| 2026-05-05 11:42 | 59.63872 | 30.74345 | 3436 ft | 251 kts | 305° |
| 2026-05-05 11:42 | 59.65002 | 30.71728 | 3306 ft | 250 kts | 305° |
| 2026-05-05 11:42 | 59.66131 | 30.69116 | 3180 ft | 250 kts | 306° |
| 2026-05-05 11:42 | 59.67432 | 30.66805 | 3047 ft | 254 kts | 319° |
| 2026-05-05 11:43 | 59.68881 | 30.64802 | 2849 ft | 249 kts | 319° |
| 2026-05-05 11:43 | 59.70260 | 30.62899 | 2790 ft | 236 kts | 318° |
| 2026-05-05 11:43 | 59.71567 | 30.61094 | 2752 ft | 221 kts | 318° |
| 2026-05-05 11:43 | 59.72794 | 30.59394 | 2647 ft | 209 kts | 317° |
| 2026-05-05 11:44 | 59.73929 | 30.57796 | 2576 ft | 189 kts | 313° |
| 2026-05-05 11:44 | 59.74740 | 30.55982 | 2483 ft | 164 kts | 294° |
| 2026-05-05 11:44 | 59.75156 | 30.54044 | 2387 ft | 146 kts | 280° |
| 2026-05-05 11:44 | 59.75446 | 30.52127 | 2278 ft | 144 kts | 281° |
| 2026-05-05 11:45 | 59.75733 | 30.50238 | 2193 ft | 142 kts | 280° |
| 2026-05-05 11:45 | 59.76016 | 30.48360 | 2109 ft | 142 kts | 280° |
| 2026-05-05 11:45 | 59.76299 | 30.46486 | 1956 ft | 142 kts | 280° |
| 2026-05-05 11:45 | 59.76582 | 30.44616 | 1767 ft | 141 kts | 281° |
| 2026-05-05 11:46 | 59.76860 | 30.42757 | 1625 ft | 141 kts | 281° |
| 2026-05-05 11:46 | 59.77136 | 30.40895 | 1440 ft | 140 kts | 281° |
| 2026-05-05 11:46 | 59.77416 | 30.39019 | 1234 ft | 144 kts | 283° |
| 2026-05-05 11:46 | 59.77707 | 30.37123 | 1021 ft | 144 kts | 283° |
| 2026-05-05 11:47 | 59.77991 | 30.35207 | 830 ft | 145 kts | 283° |
| 2026-05-05 11:47 | 59.78287 | 30.33247 | 614 ft | 150 kts | 284° |
| 2026-05-05 11:47 | 59.78586 | 30.31258 | 421 ft | 151 kts | 284° |
| 2026-05-05 11:47 | 59.78891 | 30.29232 | 230 ft | 154 kts | 284° |
| 2026-05-05 11:48 | 59.79455 | 30.25464 | 273 ft | 137 kts | 284° |
| 2026-05-05 11:48 | 59.79762 | 30.23549 | 904 ft | 154 kts | 285° |
| 2026-05-05 11:48 | 59.80066 | 30.21456 | 1697 ft | 153 kts | 281° |
| 2026-05-05 11:49 | 59.80351 | 30.19442 | 2357 ft | 152 kts | 280° |
| 2026-05-05 11:49 | 59.80434 | 30.17458 | 3040 ft | 143 kts | 257° |
| 2026-05-05 11:49 | 59.80134 | 30.15337 | 3019 ft | 175 kts | 254° |
| 2026-05-05 11:49 | 59.79801 | 30.12878 | 3116 ft | 191 kts | 254° |
| 2026-05-05 11:50 | 59.79437 | 30.10219 | 3006 ft | 204 kts | 253° |
| 2026-05-05 11:50 | 59.79129 | 30.07460 | 2997 ft | 205 kts | 254° |
| 2026-05-05 11:50 | 59.78332 | 30.05106 | 3003 ft | 209 kts | 220° |
| 2026-05-05 11:50 | 59.76940 | 30.04117 | 3005 ft | 223 kts | 189° |
| 2026-05-05 11:51 | 59.75400 | 30.04884 | 3009 ft | 240 kts | 156° |
| 2026-05-05 11:51 | 59.74206 | 30.07289 | 3010 ft | 254 kts | 124° |
| 2026-05-05 11:51 | 59.73663 | 30.10663 | 3003 ft | 260 kts | 104° |
| 2026-05-05 11:51 | 59.73356 | 30.14203 | 3010 ft | 261 kts | 102° |
| 2026-05-05 11:52 | 59.73070 | 30.17755 | 2983 ft | 261 kts | 102° |
| 2026-05-05 11:52 | 59.72664 | 30.21230 | 2997 ft | 258 kts | 110° |
| 2026-05-05 11:52 | 59.72126 | 30.24603 | 2995 ft | 254 kts | 112° |
| 2026-05-05 11:52 | 59.71578 | 30.27932 | 2992 ft | 254 kts | 112° |
| 2026-05-05 11:53 | 59.71044 | 30.31251 | 3008 ft | 252 kts | 112° |
| 2026-05-05 11:53 | 59.70505 | 30.34543 | 3000 ft | 251 kts | 112° |
| 2026-05-05 11:53 | 59.69959 | 30.37824 | 3009 ft | 251 kts | 112° |
| 2026-05-05 11:53 | 59.69419 | 30.41057 | 2994 ft | 251 kts | 112° |
| 2026-05-05 11:54 | 59.68879 | 30.44365 | 3012 ft | 253 kts | 112° |
| 2026-05-05 11:54 | 59.68350 | 30.47678 | 2989 ft | 252 kts | 112° |
| 2026-05-05 11:54 | 59.67822 | 30.50993 | 3009 ft | 253 kts | 112° |
| 2026-05-05 11:54 | 59.67302 | 30.54283 | 2988 ft | 244 kts | 110° |
| 2026-05-05 11:55 | 59.67207 | 30.57535 | 2982 ft | 229 kts | 76° |
| 2026-05-05 11:55 | 59.67963 | 30.60198 | 2925 ft | 219 kts | 38° |
| 2026-05-05 11:55 | 59.69250 | 30.61473 | 2769 ft | 202 kts | 359° |
| 2026-05-05 11:55 | 59.70551 | 30.61058 | 2595 ft | 185 kts | 328° |
| 2026-05-05 11:56 | 59.71700 | 30.59963 | 2422 ft | 182 kts | 323° |
| 2026-05-05 11:56 | 59.72816 | 30.58789 | 2238 ft | 181 kts | 322° |
| 2026-05-05 11:56 | 59.73902 | 30.57596 | 2083 ft | 179 kts | 317° |
| 2026-05-05 11:56 | 59.74747 | 30.55903 | 2011 ft | 169 kts | 295° |
| 2026-05-05 11:57 | 59.75192 | 30.53808 | 2011 ft | 164 kts | 281° |
| 2026-05-05 11:57 | 59.75519 | 30.51647 | 2004 ft | 163 kts | 281° |
| 2026-05-05 11:57 | 59.75846 | 30.49486 | 2001 ft | 162 kts | 281° |
| 2026-05-05 11:57 | 59.76158 | 30.47438 | 2007 ft | 148 kts | 280° |
| 2026-05-05 11:58 | 59.76446 | 30.45529 | 1857 ft | 142 kts | 280° |
| 2026-05-05 11:58 | 59.76714 | 30.43746 | 1689 ft | 140 kts | 280° |
| 2026-05-05 11:58 | 59.76992 | 30.41898 | 1527 ft | 139 kts | 281° |
| 2026-05-05 11:58 | 59.77267 | 30.40062 | 1343 ft | 139 kts | 281° |
| 2026-05-05 11:59 | 59.77540 | 30.38225 | 1160 ft | 139 kts | 282° |
| 2026-05-05 11:59 | 59.77812 | 30.36419 | 956 ft | 139 kts | 278° |
| 2026-05-05 11:59 | 59.78085 | 30.34585 | 764 ft | 142 kts | 282° |
| 2026-05-05 11:59 | 59.78370 | 30.32705 | 586 ft | 143 kts | 283° |
| 2026-05-05 12:00 | 59.78653 | 30.30812 | 392 ft | 143 kts | 283° |
| 2026-05-05 12:00 | 59.78849 | 30.29526 | 257 ft | 145 kts | 284° |
| 2026-05-05 12:00 | 59.79136 | 30.27614 | 93 ft | 139 kts | 283° |
| 2026-05-05 12:00 | 59.79349 | 30.26120 | 82 ft | 72 kts | 287° |
| 2026-05-05 12:01 | 59.79421 | 30.25658 | 83 ft | 18 kts | 287° |
| 2026-05-05 12:01 | 59.79463 | 30.25482 | 87 ft | 5 kts | 357° |
| 2026-05-05 12:01 | 59.79491 | 30.25558 | 87 ft | 12 kts | 73° |
| 2026-05-05 12:01 | 59.79523 | 30.25811 | 85 ft | 23 kts | 75° |
| 2026-05-05 12:02 | 59.79532 | 30.26112 | 85 ft | 21 kts | 103° |
| 2026-05-05 12:02 | 59.79505 | 30.26314 | 83 ft | 12 kts | 91° |
| 2026-05-05 12:02 | 59.79566 | 30.26392 | 84 ft | 11 kts | 14° |
| 2026-05-05 12:02 | 59.79633 | 30.26428 | 83 ft | 9 kts | 16° |
| 2026-05-05 12:03 | 59.79690 | 30.26464 | 85 ft | 8 kts | 17° |
| 2026-05-05 12:03 | 59.79738 | 30.26493 | 82 ft | 6 kts | 17° |
| 2026-05-05 12:03 | 59.79774 | 30.26520 | 83 ft | 3 kts | 41° |
| 2026-05-05 12:03 | 59.79780 | 30.26561 | 85 ft | 4 kts | 76° |
| 2026-05-05 12:04 | 59.79779 | 30.26632 | 82 ft | 3 kts | 93° |
| 2026-05-05 12:04 | 59.79778 | 30.26669 | 82 ft | 2 kts | 94° |
| 2026-05-05 12:04 | 59.79778 | 30.26680 | 82 ft | 0 kts | 94° |